Time;durP1;ratioP1;P1;durP2;ratioP2;P2;SDS_P1;SDS_P2;PMS_P1;PMS_P2;Temp;Humidity;BMP_temperature;BMP_pressure;BME280_temperature;BME280_humidity;BME280_pressure;Samples;Min_cycle;Max_cycle;Signal;HPM_P1;HPM_P2
2023/06/15 00:04:35;;;;;;;19.98;10.20;;;;;;;17.19;100.00;97516.28;10290121;28;20056;-49
2023/06/15 00:09:34;;;;;;;20.00;10.88;;;;;;;17.18;100.00;97521.56;10289342;28;20473;-51
2023/06/15 00:14:33;;;;;;;17.80;10.00;;;;;;;17.18;100.00;97511.94;10289838;28;20507;-49
2023/06/15 00:19:32;;;;;;;16.42;10.60;;;;;;;17.17;100.00;97510.22;10289446;28;20033;-50
2023/06/15 00:24:31;;;;;;;17.88;10.63;;;;;;;16.93;100.00;97478.63;10288867;28;20121;-49
2023/06/15 00:29:30;;;;;;;21.60;11.32;;;;;;;17.18;100.00;97501.44;10288658;28;20521;-47
2023/06/15 00:34:29;;;;;;;19.15;11.35;;;;;;;17.07;100.00;97474.69;10289517;28;20490;-49
2023/06/15 00:39:28;;;;;;;21.40;10.88;;;;;;;17.33;100.00;97503.59;10287772;28;20085;-48
2023/06/15 00:44:27;;;;;;;26.55;12.65;;;;;;;17.30;100.00;97487.06;10288413;28;20563;-50
2023/06/15 00:49:27;;;;;;;23.20;11.65;;;;;;;17.31;100.00;97494.91;10287960;28;20503;-47
2023/06/15 00:54:26;;;;;;;22.95;11.48;;;;;;;17.32;100.00;97491.34;10287866;28;20128;-48
2023/06/15 00:59:25;;;;;;;26.02;11.73;;;;;;;17.29;100.00;97480.97;10287155;28;20563;-46
2023/06/15 01:04:24;;;;;;;24.33;11.68;;;;;;;17.25;100.00;97479.34;10288030;28;20456;-47
2023/06/15 01:09:25;;;;;;;27.70;13.25;;;;;;;17.25;100.00;97483.75;10301997;28;20046;-50
2023/06/15 01:14:27;;;;;;;28.20;13.77;;;;;;;17.16;100.00;97484.88;10286834;28;20068;-48
2023/06/15 01:19:54;;;;;;;25.15;13.85;;;;;;;16.88;100.00;97471.78;10287579;28;20116;-50
2023/06/15 01:25:04;;;;;;;26.70;13.50;;;;;;;16.81;100.00;97478.13;10287126;28;20125;-47
2023/06/15 01:30:04;;;;;;;31.05;13.32;;;;;;;16.72;100.00;97484.47;10268533;28;20133;-50
2023/06/15 01:35:04;;;;;;;24.10;12.77;;;;;;;16.59;100.00;97478.75;10286462;28;20584;-47
2023/06/15 01:40:03;;;;;;;26.73;13.73;;;;;;;16.53;100.00;97473.66;10286183;28;20065;-47
2023/06/15 01:45:03;;;;;;;27.65;12.80;;;;;;;16.51;100.00;97471.13;10286056;28;20076;-48
2023/06/15 01:50:02;;;;;;;23.65;11.88;;;;;;;16.56;100.00;97459.63;10285587;28;20123;-49
2023/06/15 01:55:01;;;;;;;27.13;12.02;;;;;;;16.60;100.00;97458.63;10286210;28;20073;-50
2023/06/15 02:00:00;;;;;;;27.13;11.75;;;;;;;16.66;100.00;97464.56;10284950;28;20061;-47
2023/06/15 02:04:59;;;;;;;19.95;10.45;;;;;;;16.71;100.00;97459.19;10285736;28;20084;-49
2023/06/15 02:09:58;;;;;;;29.33;11.77;;;;;;;16.76;100.00;97459.88;10285225;28;20460;-48
2023/06/15 02:14:57;;;;;;;25.60;11.38;;;;;;;16.20;100.00;97357.69;10284822;28;20561;-49
2023/06/15 02:19:57;;;;;;;23.63;11.52;;;;;;;16.57;100.00;97408.97;10286219;28;20026;-50
2023/06/15 02:24:56;;;;;;;28.10;12.88;;;;;;;16.87;100.00;97460.44;10285236;28;20124;-49
2023/06/15 02:29:55;;;;;;;31.40;13.65;;;;;;;16.83;100.00;97445.72;10283870;28;20041;-48
2023/06/15 02:34:56;;;;;;;34.95;14.02;;;;;;;16.88;100.00;97449.06;10284495;28;20125;-50
2023/06/15 02:39:55;;;;;;;28.17;13.23;;;;;;;16.92;100.00;97450.69;10284278;28;20053;-48
2023/06/15 02:44:54;;;;;;;28.10;12.88;;;;;;;16.95;100.00;97439.25;10284559;28;20223;-49
2023/06/15 02:49:53;;;;;;;28.90;14.13;;;;;;;16.95;100.00;97438.38;10287456;28;20115;-50
2023/06/15 02:54:52;;;;;;;30.23;14.18;;;;;;;16.74;100.00;97448.59;10287188;28;20461;-47
2023/06/15 02:59:52;;;;;;;33.80;15.45;;;;;;;16.42;100.00;97450.44;10286997;28;20061;-49
2023/06/15 03:04:51;;;;;;;41.03;15.43;;;;;;;16.10;100.00;97406.84;10293983;28;20061;-48
2023/06/15 03:09:51;;;;;;;36.03;14.57;;;;;;;16.37;100.00;97446.22;10295047;28;20497;-49
2023/06/15 03:14:50;;;;;;;35.78;15.27;;;;;;;16.18;100.00;97419.72;10295045;28;20061;-50
2023/06/15 03:19:49;;;;;;;45.35;16.42;;;;;;;16.45;100.00;97452.09;10295568;28;20033;-48
2023/06/15 03:24:49;;;;;;;31.65;16.17;;;;;;;16.41;100.00;97437.38;10295366;28;20066;-49
2023/06/15 03:29:49;;;;;;;31.75;13.70;;;;;;;16.24;100.00;97419.53;10293952;28;20077;-47
2023/06/15 03:34:49;;;;;;;34.00;18.17;;;;;;;15.76;100.00;97337.09;10294324;28;20064;-53
2023/06/15 03:39:48;;;;;;;26.83;15.38;;;;;;;16.19;100.00;97413.59;10294203;28;20481;-50
2023/06/15 04:01:14;;;;;;;22.40;12.67;;;;;;;16.37;100.00;97438.34;10508018;27;20476;-51
2023/06/15 04:06:15;;;;;;;22.15;12.98;;;;;;;16.58;100.00;97429.00;10492075;28;20473;-51
2023/06/15 04:11:14;;;;;;;19.08;13.23;;;;;;;16.77;100.00;97424.94;10492017;28;20094;-50
2023/06/15 04:16:13;;;;;;;20.23;13.65;;;;;;;16.84;100.00;97431.72;10492030;28;20063;-50
2023/06/15 04:21:12;;;;;;;20.02;12.20;;;;;;;16.82;100.00;97427.44;10491940;28;20118;-50
2023/06/15 04:26:13;;;;;;;20.30;13.15;;;;;;;16.84;100.00;97431.72;10491306;28;20086;-48
2023/06/15 04:31:17;;;;;;;21.42;12.75;;;;;;;16.66;100.00;97412.16;10491111;28;20079;-50
2023/06/15 04:36:16;;;;;;;21.45;13.10;;;;;;;16.71;100.00;97399.75;10492057;28;20145;-49
2023/06/15 04:41:22;;;;;;;20.73;12.20;;;;;;;16.77;100.00;97426.66;10484493;28;20079;-49
2023/06/15 04:46:21;;;;;;;19.58;12.10;;;;;;;17.00;100.00;97434.69;10485167;28;20127;-51
2023/06/15 04:51:20;;;;;;;19.38;12.38;;;;;;;17.20;100.00;97441.94;10496763;28;20156;-48
2023/06/15 04:56:21;;;;;;;16.83;11.45;;;;;;;17.44;100.00;97437.63;10483152;28;20023;-51
2023/06/15 05:01:20;;;;;;;17.90;12.65;;;;;;;17.72;100.00;97432.31;10461052;28;20078;-50
2023/06/15 05:06:19;;;;;;;14.73;12.15;;;;;;;18.05;100.00;97436.44;10457382;28;20028;-48
2023/06/15 05:11:18;;;;;;;14.20;10.65;;;;;;;18.48;100.00;97432.22;10459807;28;20064;-51
2023/06/15 05:16:17;;;;;;;15.18;10.70;;;;;;;18.76;100.00;97419.78;10454390;28;20042;-50
2023/06/15 05:21:17;;;;;;;13.52;11.63;;;;;;;19.11;100.00;97437.69;10458263;28;20118;-48
2023/06/15 05:26:16;;;;;;;11.27;9.73;;;;;;;19.16;100.00;97441.00;10455610;28;20060;-50
2023/06/15 05:31:15;;;;;;;11.38;8.98;;;;;;;19.37;100.00;97439.25;10455246;28;20378;-49
2023/06/15 05:36:14;;;;;;;13.70;10.05;;;;;;;19.53;100.00;97444.72;10455672;28;20032;-50
2023/06/15 05:41:13;;;;;;;11.13;9.00;;;;;;;19.59;100.00;97442.72;10457895;28;20060;-48
2023/06/15 05:46:12;;;;;;;10.43;8.88;;;;;;;19.57;100.00;97436.69;10455739;28;20135;-51
2023/06/15 05:51:11;;;;;;;13.23;9.20;;;;;;;19.52;100.00;97453.56;10454097;28;20044;-51
2023/06/15 05:56:10;;;;;;;11.55;8.93;;;;;;;19.64;100.00;97448.66;10455594;28;20039;-48
2023/06/15 06:01:09;;;;;;;10.80;8.45;;;;;;;19.79;100.00;97451.53;10453720;28;20122;-49
2023/06/15 06:06:08;;;;;;;10.23;8.57;;;;;;;20.05;100.00;97446.03;10459624;27;20221;-50
2023/06/15 06:11:09;;;;;;;11.25;9.38;;;;;;;20.28;100.00;97449.38;10466352;28;20522;-49
2023/06/15 06:16:08;;;;;;;11.63;8.45;;;;;;;20.32;100.00;97439.59;10464062;28;20080;-51
2023/06/15 06:21:07;;;;;;;10.25;8.30;;;;;;;20.52;100.00;97451.88;10466206;28;20028;-51
2023/06/15 06:26:06;;;;;;;9.82;7.97;;;;;;;20.46;99.31;97406.41;10460431;28;20154;-50
2023/06/15 06:31:05;;;;;;;9.45;8.27;;;;;;;20.62;95.84;97448.75;10452595;28;20197;-49
2023/06/15 06:36:05;;;;;;;10.48;8.40;;;;;;;20.59;96.24;97441.00;10454014;28;20044;-51
2023/06/15 06:41:04;;;;;;;11.07;8.13;;;;;;;20.75;96.61;97451.69;10472880;28;20508;-51
2023/06/15 06:46:03;;;;;;;9.88;7.68;;;;;;;20.92;94.05;97449.09;10456901;28;20494;-51
2023/06/15 06:51:02;;;;;;;12.40;8.18;;;;;;;21.11;90.47;97440.31;10452889;28;20124;-51
2023/06/15 06:56:01;;;;;;;10.43;8.07;;;;;;;21.28;90.99;97445.63;10461939;28;20094;-51
2023/06/15 07:01:00;;;;;;;10.10;7.97;;;;;;;21.51;89.84;97438.38;10453771;28;20056;-49
2023/06/15 07:05:59;;;;;;;9.20;7.50;;;;;;;21.73;87.79;97438.13;10453238;28;20062;-51
2023/06/15 07:10:58;;;;;;;9.52;7.57;;;;;;;21.86;87.02;97452.41;10454809;28;20074;-51
2023/06/15 07:15:57;;;;;;;9.23;7.43;;;;;;;22.00;86.71;97459.66;10479238;28;20063;-50
2023/06/15 07:20:56;;;;;;;9.77;6.50;;;;;;;21.89;85.88;97449.59;10460304;28;20132;-50
2023/06/15 07:25:55;;;;;;;8.93;7.40;;;;;;;21.74;86.07;97437.19;10458933;28;20116;-50
2023/06/15 07:30:54;;;;;;;9.45;7.68;;;;;;;21.66;85.57;97460.50;10455844;28;20027;-50
2023/06/15 07:35:53;;;;;;;8.63;7.40;;;;;;;21.52;86.66;97461.19;10457528;27;20138;-50
2023/06/15 07:40:52;;;;;;;8.52;7.07;;;;;;;21.82;84.58;97463.22;10470487;28;20055;-51
2023/06/15 07:45:51;;;;;;;7.97;7.18;;;;;;;22.08;85.16;97459.25;10472431;28;20066;-52
2023/06/15 07:50:50;;;;;;;12.45;8.00;;;;;;;22.05;84.85;97462.91;10469381;28;20111;-51
2023/06/15 07:55:49;;;;;;;9.85;6.90;;;;;;;22.11;83.31;97464.41;10450378;28;20032;-51
2023/06/15 08:00:48;;;;;;;8.95;7.75;;;;;;;22.32;84.07;97465.91;10449452;28;20547;-51
2023/06/15 08:05:47;;;;;;;10.68;7.65;;;;;;;22.52;81.99;97448.13;10451259;28;20067;-52
2023/06/15 08:10:46;;;;;;;9.80;7.50;;;;;;;22.73;81.37;97456.66;10448745;28;20028;-49
2023/06/15 08:15:45;;;;;;;8.63;7.05;;;;;;;23.26;83.69;97454.66;10447971;28;20078;-49
2023/06/15 08:20:44;;;;;;;9.77;7.80;;;;;;;23.56;78.67;97454.69;10462807;28;20074;-52
2023/06/15 08:25:43;;;;;;;11.43;8.00;;;;;;;23.54;75.35;97454.78;10452172;28;20114;-49
2023/06/15 08:30:42;;;;;;;9.88;7.93;;;;;;;23.70;78.13;97459.16;10454017;28;20131;-50
2023/06/15 08:35:42;;;;;;;9.38;8.00;;;;;;;23.44;75.44;97440.31;10460028;28;20036;-50
2023/06/15 08:40:41;;;;;;;10.93;8.50;;;;;;;23.28;77.62;97452.75;10469546;28;20071;-51
2023/06/15 08:45:40;;;;;;;9.70;8.65;;;;;;;23.43;79.86;97451.88;10472955;28;20063;-48
2023/06/15 08:50:40;;;;;;;12.80;9.43;;;;;;;23.67;78.28;97456.72;10459096;28;20052;-53
2023/06/15 08:55:40;;;;;;;10.65;8.48;;;;;;;23.67;75.56;97449.59;10456579;28;20127;-51
2023/06/15 09:00:39;;;;;;;13.55;9.23;;;;;;;23.53;75.81;97431.88;10454577;28;20068;-50
2023/06/15 09:05:38;;;;;;;12.23;9.20;;;;;;;23.47;76.48;97452.56;10456989;28;20063;-51
2023/06/15 09:10:38;;;;;;;12.25;9.00;;;;;;;23.61;77.84;97456.13;10456046;28;20038;-50
2023/06/15 09:15:37;;;;;;;13.80;9.15;;;;;;;23.53;76.73;97445.13;10461585;28;20510;-52
2023/06/15 09:20:38;;;;;;;16.02;8.90;;;;;;;23.63;76.77;97450.72;10476083;28;20082;-49
2023/06/15 09:25:37;;;;;;;10.77;9.07;;;;;;;23.74;76.63;97450.94;10470521;27;20144;-50
2023/06/15 09:30:40;;;;;;;10.30;8.68;;;;;;;23.75;76.89;97451.81;10466223;28;20059;-50
2023/06/15 09:36:03;;;;;;;11.50;9.68;;;;;;;23.88;75.32;97452.78;10466779;28;20477;-49
2023/06/15 09:41:03;;;;;;;16.42;10.57;;;;;;;24.20;74.78;97447.38;10476355;28;20073;-49
2023/06/15 10:05:32;;;;;;;10.85;8.38;;;;;;;23.92;75.45;97446.38;10581754;27;20439;-51
2023/06/15 10:10:35;;;;;;;12.02;8.25;;;;;;;24.49;74.07;97438.44;10539956;27;20059;-52
2023/06/15 10:15:36;;;;;;;11.35;8.85;;;;;;;24.78;71.34;97446.41;10547795;27;20070;-51
2023/06/15 10:20:35;;;;;;;9.00;8.10;;;;;;;25.13;73.90;97438.00;10549511;27;20055;-52
2023/06/15 10:25:36;;;;;;;10.38;8.40;;;;;;;25.40;69.18;97421.19;10572700;27;20023;-50
2023/06/15 10:30:41;;;;;;;14.57;8.45;;;;;;;25.75;67.59;97418.84;10613621;27;20046;-51
2023/06/15 10:35:48;;;;;;;11.25;8.00;;;;;;;25.78;64.27;97415.97;10618580;27;20061;-49
2023/06/15 10:40:48;;;;;;;9.88;7.60;;;;;;;25.71;65.07;97401.41;10584216;27;20065;-51
2023/06/15 10:45:48;;;;;;;9.27;7.88;;;;;;;26.11;66.43;97420.81;10569480;27;20832;-49
2023/06/15 10:50:51;;;;;;;9.73;7.57;;;;;;;26.43;62.20;97396.44;10588426;27;20053;-51
2023/06/15 10:55:55;;;;;;;9.93;7.25;;;;;;;26.41;58.35;97416.97;10582835;27;20735;-52
2023/06/15 11:01:11;;;;;;;10.75;7.95;;;;;;;25.82;58.47;97398.03;10537788;27;20426;-49
2023/06/15 11:06:15;;;;;;;9.63;7.40;;;;;;;25.46;60.33;97404.88;10506208;27;20074;-51
2023/06/15 11:11:32;;;;;;;8.82;7.38;;;;;;;25.49;59.78;97399.34;10538311;27;20068;-48
2023/06/15 11:16:38;;;;;;;9.88;7.22;;;;;;;25.70;60.06;97395.25;10547072;27;20706;-49
2023/06/15 11:21:56;;;;;;;9.18;6.95;;;;;;;25.74;60.03;97388.78;10533232;27;20054;-49
2023/06/15 11:27:01;;;;;;;10.85;7.50;;;;;;;25.99;59.82;97389.72;10525712;27;20062;-51
2023/06/15 11:32:04;;;;;;;9.93;7.72;;;;;;;25.66;62.72;97382.28;10567324;27;20050;-52
2023/06/15 11:37:03;;;;;;;11.75;7.85;;;;;;;25.42;65.67;97387.41;10563625;27;20093;-50
2023/06/15 11:42:05;;;;;;;10.73;9.65;;;;;;;25.10;71.59;97383.28;10537281;27;20035;-49
2023/06/15 11:47:09;;;;;;;17.52;12.10;;;;;;;24.52;74.82;97395.00;10566228;27;20053;-52
2023/06/15 11:52:08;;;;;;;15.57;13.55;;;;;;;23.98;80.17;97406.25;10574557;27;20042;-52
2023/06/15 11:57:08;;;;;;;17.80;14.27;;;;;;;23.38;85.47;97401.81;10550592;27;20111;-52
2023/06/15 12:02:07;;;;;;;18.58;15.15;;;;;;;23.19;87.89;97383.50;10585986;27;20065;-52
2023/06/15 12:07:06;;;;;;;16.27;14.30;;;;;;;22.78;89.62;97401.75;10545072;27;20050;-50
2023/06/15 12:12:08;;;;;;;15.93;14.02;;;;;;;22.55;93.19;97411.78;10577611;27;20502;-51
2023/06/15 12:17:07;;;;;;;16.90;14.82;;;;;;;22.91;93.19;97392.19;10535273;27;20055;-52
2023/06/15 12:22:06;;;;;;;15.95;14.00;;;;;;;23.14;89.91;97377.63;10501383;27;20030;-50
2023/06/15 12:27:15;;;;;;;14.27;12.68;;;;;;;23.40;87.93;97385.84;10501517;27;20107;-51
2023/06/15 12:32:22;;;;;;;12.05;10.77;;;;;;;23.73;86.39;97374.22;10500937;27;20054;-49
2023/06/15 12:37:21;;;;;;;12.57;10.18;;;;;;;23.79;80.04;97371.19;10503605;27;20055;-52
2023/06/15 12:42:22;;;;;;;12.05;10.85;;;;;;;23.98;79.64;97363.84;10501014;27;20103;-50
2023/06/15 12:47:21;;;;;;;12.85;10.73;;;;;;;24.38;79.81;97355.19;10496429;27;20726;-52
2023/06/15 12:52:27;;;;;;;11.73;10.52;;;;;;;24.88;77.81;97338.72;10499030;27;20047;-51
2023/06/15 12:57:26;;;;;;;10.10;9.10;;;;;;;25.23;72.83;97316.09;10529450;27;20509;-52
2023/06/15 13:02:26;;;;;;;11.80;9.00;;;;;;;25.28;71.03;97335.22;10495107;27;20078;-49
2023/06/15 13:07:25;;;;;;;9.25;8.35;;;;;;;25.61;69.20;97331.25;10511724;27;20073;-49
2023/06/15 13:12:25;;;;;;;10.43;9.15;;;;;;;25.76;70.74;97319.53;10580364;27;20091;-52
2023/06/15 13:17:23;;;;;;;7.88;7.07;;;;;;;26.14;66.79;97308.88;10532164;27;20479;-50
2023/06/15 13:22:22;;;;;;;9.20;8.30;;;;;;;26.22;66.74;97302.19;10497549;27;20405;-52
2023/06/15 13:27:21;;;;;;;11.55;8.93;;;;;;;26.31;64.37;97289.09;10496920;27;20118;-49
2023/06/15 13:32:20;;;;;;;9.57;8.63;;;;;;;26.50;64.73;97291.25;10497097;27;20088;-51
2023/06/15 13:37:19;;;;;;;9.07;7.78;;;;;;;26.39;61.84;97279.69;10496666;27;20437;-51
2023/06/15 13:42:18;;;;;;;8.63;7.65;;;;;;;26.22;62.69;97283.59;10494907;27;20063;-50
2023/06/15 13:47:20;;;;;;;8.52;7.45;;;;;;;26.38;62.82;97273.53;10496909;27;20122;-50
2023/06/15 13:52:18;;;;;;;7.82;7.03;;;;;;;26.57;63.16;97273.88;10502898;27;20058;-51
2023/06/15 13:57:18;;;;;;;7.55;6.75;;;;;;;26.35;60.17;97279.94;10530028;27;20047;-50
2023/06/15 14:02:17;;;;;;;6.25;5.55;;;;;;;26.27;58.56;97252.19;10496150;27;20094;-52
2023/06/15 14:07:16;;;;;;;7.22;6.53;;;;;;;26.58;59.00;97274.72;10496144;27;20067;-51
2023/06/15 14:12:15;;;;;;;6.10;5.38;;;;;;;26.67;60.33;97279.34;10494593;27;20047;-50
2023/06/15 14:17:14;;;;;;;6.60;5.90;;;;;;;26.54;59.09;97274.09;10532939;27;20069;-52
2023/06/15 14:22:13;;;;;;;8.55;6.60;;;;;;;26.39;61.61;97251.28;10496393;27;20027;-53
2023/06/15 14:27:12;;;;;;;9.35;6.40;;;;;;;26.28;61.25;97273.34;10495799;27;20481;-51
2023/06/15 14:32:14;;;;;;;12.27;6.35;;;;;;;25.79;62.26;97270.66;10495452;27;20023;-52
2023/06/15 14:37:13;;;;;;;7.25;6.05;;;;;;;25.32;63.25;97260.53;10496302;27;20094;-50
2023/06/15 14:42:14;;;;;;;8.32;6.95;;;;;;;25.15;67.32;97260.84;10506918;27;20111;-52
2023/06/15 14:47:13;;;;;;;8.88;7.30;;;;;;;25.19;70.09;97249.06;10535244;27;20061;-49
2023/06/15 14:52:12;;;;;;;7.57;6.88;;;;;;;25.04;71.75;97243.00;10496564;27;20243;-52
2023/06/15 14:57:11;;;;;;;8.55;6.20;;;;;;;24.68;71.45;97235.66;10496385;27;20039;-50
2023/06/15 15:02:10;;;;;;;7.90;5.28;;;;;;;24.72;71.48;97237.16;10496659;27;20170;-52
2023/06/15 15:07:09;;;;;;;6.53;4.75;;;;;;;24.20;70.19;97224.66;10496786;27;20115;-50
2023/06/15 15:12:08;;;;;;;10.43;5.28;;;;;;;23.92;71.12;97221.09;10504002;27;20023;-49
2023/06/15 15:17:07;;;;;;;5.55;4.45;;;;;;;23.85;71.47;97227.75;10535049;27;20071;-52
2023/06/15 15:22:06;;;;;;;6.22;4.40;;;;;;;23.82;71.77;97212.88;10536527;27;20097;-51
2023/06/15 15:27:05;;;;;;;6.05;4.55;;;;;;;23.82;71.18;97220.00;10537672;27;20031;-52
2023/06/15 15:38:09;;;;;;;6.03;5.28;;;;;;;23.05;72.69;97182.31;10528232;27;20055;-50
2023/06/15 15:43:16;;;;;;;7.85;5.22;;;;;;;22.97;74.74;97221.63;10525673;27;20118;-52
2023/06/15 15:48:18;;;;;;;6.53;5.15;;;;;;;22.84;76.54;97226.78;10484474;27;20133;-51
2023/06/15 15:53:17;;;;;;;8.32;6.30;;;;;;;22.67;78.93;97225.13;10494227;27;20115;-49
2023/06/15 15:58:16;;;;;;;9.10;6.47;;;;;;;22.44;81.96;97225.59;10494146;27;20067;-52
2023/06/15 16:03:15;;;;;;;12.98;8.10;;;;;;;22.25;85.22;97223.13;10492679;27;20040;-49
2023/06/15 16:08:14;;;;;;;11.63;8.23;;;;;;;21.32;87.21;97105.88;10521595;27;20115;-51
2023/06/15 16:13:13;;;;;;;11.13;8.38;;;;;;;21.72;89.44;97226.00;10535032;27;20537;-50
2023/06/15 16:18:12;;;;;;;11.43;8.02;;;;;;;21.59;90.31;97219.66;10533300;27;20576;-49
2023/06/15 16:23:11;;;;;;;12.80;8.57;;;;;;;21.37;91.04;97213.84;10511751;27;20051;-50
2023/06/15 16:28:10;;;;;;;11.32;8.80;;;;;;;21.20;92.11;97210.28;10492625;27;20114;-52
2023/06/15 16:33:08;;;;;;;11.43;9.45;;;;;;;20.89;92.68;97169.69;10491857;27;20031;-49
2023/06/15 16:38:07;;;;;;;11.15;7.88;;;;;;;20.96;93.06;97215.06;10492715;27;20433;-50
2023/06/15 16:43:08;;;;;;;14.95;8.23;;;;;;;20.91;93.31;97220.56;10492187;27;20043;-49
2023/06/15 16:48:07;;;;;;;12.75;9.50;;;;;;;20.78;93.89;97232.66;10493442;27;20504;-50
2023/06/15 16:53:06;;;;;;;14.18;11.23;;;;;;;20.67;93.74;97220.00;10492562;27;20632;-51
2023/06/15 16:58:05;;;;;;;16.15;10.15;;;;;;;20.54;93.85;97224.19;10488723;27;20505;-51
2023/06/15 17:03:05;;;;;;;13.95;10.88;;;;;;;20.43;93.86;97227.34;10490429;27;20122;-51
2023/06/15 17:08:04;;;;;;;13.55;10.00;;;;;;;20.28;94.62;97235.97;10491769;27;20063;-52
2023/06/15 17:13:04;;;;;;;17.38;9.48;;;;;;;20.12;95.10;97246.41;10494211;27;20070;-51
2023/06/15 17:18:03;;;;;;;14.63;9.60;;;;;;;20.11;95.39;97257.00;10532648;27;20062;-48
2023/06/15 17:23:02;;;;;;;17.33;11.57;;;;;;;19.99;96.53;97263.72;10533257;27;20059;-52
2023/06/15 17:28:01;;;;;;;16.17;10.68;;;;;;;19.87;96.90;97265.97;10532162;27;20113;-49
2023/06/15 17:33:00;;;;;;;15.57;9.93;;;;;;;19.76;97.26;97248.97;10531723;27;20051;-52
2023/06/15 17:37:59;;;;;;;15.07;10.50;;;;;;;19.90;97.41;97264.13;10533803;27;20055;-50
2023/06/15 17:42:58;;;;;;;14.57;11.02;;;;;;;19.94;97.44;97265.72;10491867;27;20533;-52
2023/06/15 17:47:57;;;;;;;14.13;10.35;;;;;;;19.92;97.33;97260.50;10489555;27;20421;-51
2023/06/15 17:52:56;;;;;;;12.57;9.63;;;;;;;19.43;100.00;97263.53;10489548;27;20085;-50
2023/06/15 17:57:55;;;;;;;11.35;7.20;;;;;;;19.33;98.41;97262.25;10490489;27;20119;-51
2023/06/15 18:02:54;;;;;;;10.52;6.25;;;;;;;19.36;97.47;97272.63;10488976;27;20536;-48
2023/06/15 18:07:53;;;;;;;14.27;7.65;;;;;;;19.33;97.14;97270.16;10491560;27;20070;-52
2023/06/15 18:12:53;;;;;;;10.00;6.97;;;;;;;19.35;97.21;97267.47;10534517;27;20023;-52
2023/06/15 18:17:52;;;;;;;8.77;5.50;;;;;;;19.34;97.23;97266.59;10540637;27;20067;-52
2023/06/15 18:22:51;;;;;;;11.45;6.18;;;;;;;19.31;96.95;97277.25;10539822;27;20031;-50
2023/06/15 18:27:50;;;;;;;10.80;6.55;;;;;;;19.25;96.75;97261.72;10540885;27;20118;-51
2023/06/15 18:32:49;;;;;;;12.85;6.70;;;;;;;18.90;96.58;97256.22;10538963;27;20466;-50
2023/06/15 18:37:48;;;;;;;10.60;6.85;;;;;;;18.71;97.70;97264.00;10539406;27;20055;-51
2023/06/15 18:42:47;;;;;;;11.32;7.53;;;;;;;18.38;98.23;97218.94;10538420;27;20023;-49
2023/06/15 18:47:46;;;;;;;10.90;7.88;;;;;;;18.72;98.17;97265.75;10513079;27;20062;-50
2023/06/15 18:52:45;;;;;;;14.77;8.18;;;;;;;18.68;98.59;97260.63;10502350;27;20118;-51
2023/06/15 18:57:44;;;;;;;11.95;7.63;;;;;;;18.60;98.91;97253.94;10530742;27;20075;-49
2023/06/15 19:02:43;;;;;;;9.45;7.68;;;;;;;18.66;99.05;97247.53;10538214;27;20070;-49
2023/06/15 19:07:43;;;;;;;11.13;7.35;;;;;;;18.50;99.02;97231.59;10538875;27;20038;-52
2023/06/15 19:12:42;;;;;;;17.50;8.10;;;;;;;18.72;99.09;97257.00;10537562;27;20061;-51
2023/06/15 19:17:41;;;;;;;10.80;7.85;;;;;;;18.73;99.18;97246.41;10536424;27;20039;-50
2023/06/15 19:22:41;;;;;;;10.15;8.27;;;;;;;18.79;98.94;97254.03;10537769;27;20051;-51
2023/06/15 19:27:40;;;;;;;13.57;9.25;;;;;;;18.75;98.95;97235.84;10537716;27;20066;-49
2023/06/15 19:32:40;;;;;;;13.15;9.63;;;;;;;18.79;99.24;97242.69;10536640;27;20027;-51
2023/06/15 19:37:39;;;;;;;15.32;10.32;;;;;;;18.77;99.52;97237.47;10537449;27;20062;-50
2023/06/15 19:42:38;;;;;;;17.00;10.77;;;;;;;18.74;99.84;97224.47;10538699;27;20023;-50
2023/06/15 19:47:37;;;;;;;18.73;12.93;;;;;;;18.70;100.00;97229.94;10528173;27;20474;-49
2023/06/15 19:52:36;;;;;;;19.67;13.75;;;;;;;18.59;100.00;97212.78;10494330;27;20150;-50
2023/06/15 19:57:35;;;;;;;20.77;12.85;;;;;;;18.72;100.00;97225.47;10494327;27;20063;-51
2023/06/15 20:02:34;;;;;;;19.38;12.90;;;;;;;18.64;100.00;97211.75;10534913;27;20039;-51
2023/06/15 20:07:33;;;;;;;16.27;12.27;;;;;;;18.73;100.00;97232.41;10536657;27;20069;-52
2023/06/15 20:12:34;;;;;;;15.45;10.27;;;;;;;18.51;100.00;97207.00;10492768;27;20136;-51
2023/06/15 20:17:33;;;;;;;15.85;10.90;;;;;;;18.75;100.00;97243.72;10492638;27;20059;-51
2023/06/15 20:22:32;;;;;;;16.50;10.07;;;;;;;18.72;100.00;97239.44;10491229;27;20037;-49
2023/06/15 20:27:30;;;;;;;14.77;10.00;;;;;;;18.58;100.00;97212.88;10493204;27;20055;-51
2023/06/15 20:32:30;;;;;;;19.35;10.43;;;;;;;18.65;100.00;97239.75;10496103;27;20034;-51
2023/06/15 20:37:29;;;;;;;13.20;8.93;;;;;;;18.64;100.00;97240.66;10493968;27;20059;-51
2023/06/15 20:42:28;;;;;;;17.98;9.13;;;;;;;18.68;100.00;97247.50;10492745;27;20074;-48
2023/06/15 20:47:27;;;;;;;15.25;9.15;;;;;;;18.67;100.00;97251.06;10491926;27;20115;-49
2023/06/15 20:52:25;;;;;;;16.65;10.15;;;;;;;18.67;100.00;97259.78;10523588;27;20031;-50
2023/06/15 20:57:24;;;;;;;19.67;11.93;;;;;;;18.66;100.00;97251.97;10487297;28;20052;-48
2023/06/15 21:02:23;;;;;;;18.98;12.32;;;;;;;18.65;100.00;97250.25;10491886;27;20046;-49
2023/06/15 21:07:22;;;;;;;20.63;12.93;;;;;;;18.65;100.00;97252.88;10491651;27;20035;-52
2023/06/15 21:12:21;;;;;;;23.75;13.70;;;;;;;18.56;100.00;97251.50;10492023;27;20034;-51
2023/06/15 21:17:20;;;;;;;21.10;14.02;;;;;;;18.68;100.00;97264.16;10490840;27;20046;-50
2023/06/15 21:22:19;;;;;;;26.88;13.90;;;;;;;18.45;100.00;97257.16;10490520;27;20066;-49
2023/06/15 21:27:18;;;;;;;24.15;14.88;;;;;;;17.98;100.00;97257.28;10490950;27;20063;-49
2023/06/15 21:32:20;;;;;;;26.00;15.80;;;;;;;17.74;100.00;97252.03;10490643;27;20542;-51
2023/06/15 21:37:19;;;;;;;24.88;15.20;;;;;;;17.53;100.00;97237.09;10490915;27;20067;-48
2023/06/15 21:42:19;;;;;;;26.48;14.27;;;;;;;17.31;100.00;97248.38;10480847;27;20067;-48
2023/06/15 21:47:18;;;;;;;19.65;11.90;;;;;;;17.20;100.00;97233.94;10490492;27;20118;-48
2023/06/15 21:52:17;;;;;;;25.98;13.38;;;;;;;16.43;100.00;97131.78;10477742;28;20138;-47
2023/06/15 21:57:16;;;;;;;21.77;14.13;;;;;;;16.66;100.00;97150.16;10489950;27;20487;-48
2023/06/15 22:02:15;;;;;;;23.55;13.40;;;;;;;16.83;100.00;97133.88;10489935;27;20046;-50
2023/06/15 22:07:14;;;;;;;21.33;13.05;;;;;;;17.39;100.00;97239.38;10487422;27;20425;-48
2023/06/15 22:12:13;;;;;;;21.20;13.50;;;;;;;17.44;100.00;97230.41;10487999;27;20114;-48
2023/06/15 22:17:12;;;;;;;21.63;13.73;;;;;;;17.26;100.00;97220.59;10488235;27;21157;-50
2023/06/15 22:22:11;;;;;;;22.02;14.27;;;;;;;17.28;100.00;97217.00;10487659;27;20047;-51
2023/06/15 22:27:12;;;;;;;23.55;14.40;;;;;;;17.31;100.00;97211.66;10490921;27;20031;-48
2023/06/15 22:32:11;;;;;;;21.35;14.23;;;;;;;17.37;100.00;97201.84;10506203;27;20512;-47
2023/06/15 22:37:10;;;;;;;24.52;13.73;;;;;;;17.39;100.00;97187.75;10488536;27;20055;-47
2023/06/15 22:42:10;;;;;;;20.45;13.95;;;;;;;17.29;100.00;97166.28;10497772;28;20151;-47
2023/06/15 22:47:08;;;;;;;24.38;14.13;;;;;;;17.31;100.00;97179.34;10517495;27;20121;-48
2023/06/15 22:52:11;;;;;;;20.60;14.68;;;;;;;17.41;100.00;97164.97;10487350;27;20038;-48
2023/06/15 22:57:10;;;;;;;23.48;14.75;;;;;;;17.32;100.00;97158.28;10488814;27;20078;-49
2023/06/15 23:02:09;;;;;;;25.00;15.38;;;;;;;17.26;100.00;97163.78;10492041;27;20063;-48
2023/06/15 23:07:09;;;;;;;34.72;16.20;;;;;;;17.40;100.00;97157.13;10492676;27;20078;-47
2023/06/15 23:12:12;;;;;;;26.63;15.23;;;;;;;17.45;100.00;97145.59;10476687;27;20066;-50
2023/06/15 23:17:11;;;;;;;24.55;16.25;;;;;;;17.52;100.00;97141.81;10493829;27;20059;-48
2023/06/15 23:22:11;;;;;;;23.60;15.52;;;;;;;17.54;100.00;97142.59;10495179;27;20043;-48
2023/06/15 23:27:10;;;;;;;25.05;16.65;;;;;;;17.59;100.00;97134.56;10494831;27;20065;-50
2023/06/15 23:32:12;;;;;;;27.05;17.92;;;;;;;17.60;100.00;97128.38;10494486;27;20055;-51